Historique des mesures à Cassis (13260), France
Quotidien Résumé Aout 1, 2020 Unités:  Métrique    US   Métrique/US
Quotidien Hebdomadaire Mensuel Annuel
  Maximum: Minimum: Moyenne:
Température: 25.4 °C 16.6 °C 20.9 °C
Point de rosée: 12.8 °C 9.8 °C 11.2 °C
Humidité: 66% 41% 54%
Vitesse du vent: 30.6km/h 0km/h 8.4km/h
Rafales: 34.6km/h - -
Vent- - WSW
Pression: 1010.0 hPa 1007.6 hPa -
Précipitations: 0.0 mm    
Historical Graphs
 
 
Mesures pour : Aout 1, 2020
Heure Temperature Point de rosée Pression Vent Vitesse du vent Rafales Humidité Pluie (par heure)
00:11 20.1 °C 10.5 °C 1010.0 hPa WNW 11.2 km/h 29.5 km/h 54% 0.0 mm
01:11 19.3 °C 10.6 °C 1010.0 hPa NNW 7.6 km/h 14 km/h 57% 0.0 mm
02:11 18.5 °C 10.6 °C 1009.7 hPa NNW 13.7 km/h 20.5 km/h 60% 0.0 mm
03:12 18.4 °C 10.2 °C 1009.7 hPa NW 8.3 km/h 27.4 km/h 59% 0.0 mm
04:11 17.8 °C 9.9 °C 1009.6 hPa North 2.2 km/h 8.3 km/h 60% 0.0 mm
05:11 17.3 °C 9.9 °C 1009.3 hPa Calm   3.2 km/h 62% 0.0 mm
06:11 17.2 °C 9.8 °C 1009.2 hPa Calm   6.1 km/h 62% 0.0 mm
07:11 16.6 °C 9.8 °C 1009.3 hPa NE 4.7 km/h 10.4 km/h 64% 0.0 mm
08:11 19.5 °C 11.6 °C 1009.7 hPa NNW 5.8 km/h 8.3 km/h 60% 0.0 mm
09:11 19 °C 10.3 °C 1009.3 hPa WNW 3.6 km/h 5.8 km/h 57% 0.0 mm
10:11 19.8 °C 10.2 °C 1009.4 hPa Calm   10.1 km/h 54% 0.0 mm
11:11 22.4 °C 12.3 °C 1009.2 hPa ESE 5 km/h 10.8 km/h 53% 0.0 mm
12:12 24.5 °C 12.4 °C 1009.2 hPa WNW 15.5 km/h 23 km/h 47% 0.0 mm
13:11 24.4 °C 11.7 °C 1008.7 hPa West 11.5 km/h 29.5 km/h 45% 0.0 mm
14:12 24.9 °C 11.4 °C 1008.3 hPa West 16.6 km/h 20.5 km/h 43% 0.0 mm
15:11 25.4 °C 11.2 °C 1008.1 hPa WSW 13.3 km/h 29.5 km/h 41% 0.0 mm
16:12 25.3 °C 11.5 °C 1007.6 hPa West 12.2 km/h 29.9 km/h 42% 0.0 mm
17:12 24.1 °C 12.4 °C 1007.6 hPa WNW 30.6 km/h 34.6 km/h 48% 0.0 mm
18:12 23.1 °C 11.1 °C 1007.7 hPa WNW 15.1 km/h 32.8 km/h 47% 0.0 mm
19:12 22.8 °C 11.5 °C 1007.9 hPa WNW 15.1 km/h 25.2 km/h 49% 0.0 mm
20:12 21.4 °C 11.4 °C 1008.5 hPa West 7.9 km/h 10.8 km/h 53% 0.0 mm
21:11 20.4 °C 12.1 °C 1008.8 hPa WNW 1.8 km/h 8.3 km/h 59% 0.0 mm
22:11 20.1 °C 12.8 °C 1009.1 hPa Calm   5 km/h 63% 0.0 mm
23:11 19.1 °C 12.6 °C 1009.0 hPa Calm   2.2 km/h 66% 0.0 mm
Observations météo à CASSIS
WU-History script by Weather Underground - 2 mb